sensor_id;sensor_type;location;lat;lon;timestamp;temperature;humidity
11122;DHT22;5615;49.304;10.576;2023-06-14T00:01:14;14.30;73.80
11122;DHT22;5615;49.304;10.576;2023-06-14T00:03:40;14.40;74.70
11122;DHT22;5615;49.304;10.576;2023-06-14T00:06:07;14.20;76.40
11122;DHT22;5615;49.304;10.576;2023-06-14T00:08:33;14.10;79.30
11122;DHT22;5615;49.304;10.576;2023-06-14T00:11:00;14.10;78.60
11122;DHT22;5615;49.304;10.576;2023-06-14T00:13:27;14.10;81.00
11122;DHT22;5615;49.304;10.576;2023-06-14T00:15:55;14.00;80.50
11122;DHT22;5615;49.304;10.576;2023-06-14T00:18:21;13.80;81.70
11122;DHT22;5615;49.304;10.576;2023-06-14T00:20:49;13.70;84.30
11122;DHT22;5615;49.304;10.576;2023-06-14T00:23:16;13.50;87.00
11122;DHT22;5615;49.304;10.576;2023-06-14T00:25:42;13.70;88.50
11122;DHT22;5615;49.304;10.576;2023-06-14T00:28:09;13.60;89.70
11122;DHT22;5615;49.304;10.576;2023-06-14T00:30:36;13.60;90.00
11122;DHT22;5615;49.304;10.576;2023-06-14T00:33:04;13.80;90.10
11122;DHT22;5615;49.304;10.576;2023-06-14T00:35:30;13.80;90.30
11122;DHT22;5615;49.304;10.576;2023-06-14T00:37:57;13.70;91.30
11122;DHT22;5615;49.304;10.576;2023-06-14T00:40:24;13.80;91.90
11122;DHT22;5615;49.304;10.576;2023-06-14T00:42:51;13.90;92.10
11122;DHT22;5615;49.304;10.576;2023-06-14T00:45:18;13.80;91.80
11122;DHT22;5615;49.304;10.576;2023-06-14T00:47:46;13.70;92.20
11122;DHT22;5615;49.304;10.576;2023-06-14T00:50:15;13.70;92.40
11122;DHT22;5615;49.304;10.576;2023-06-14T00:52:42;13.70;94.10
11122;DHT22;5615;49.304;10.576;2023-06-14T00:55:09;13.70;93.60
11122;DHT22;5615;49.304;10.576;2023-06-14T00:57:35;13.40;94.00
11122;DHT22;5615;49.304;10.576;2023-06-14T01:00:06;13.40;95.00
11122;DHT22;5615;49.304;10.576;2023-06-14T01:02:34;13.40;95.60
11122;DHT22;5615;49.304;10.576;2023-06-14T01:05:02;13.50;95.30
11122;DHT22;5615;49.304;10.576;2023-06-14T01:07:40;13.30;95.50
11122;DHT22;5615;49.304;10.576;2023-06-14T01:10:29;13.00;97.50
11122;DHT22;5615;49.304;10.576;2023-06-14T01:13:02;12.90;97.50
11122;DHT22;5615;49.304;10.576;2023-06-14T01:15:31;13.00;98.60
11122;DHT22;5615;49.304;10.576;2023-06-14T01:17:59;12.80;99.40
11122;DHT22;5615;49.304;10.576;2023-06-14T01:20:29;12.60;99.90
11122;DHT22;5615;49.304;10.576;2023-06-14T01:22:57;12.50;99.90
11122;DHT22;5615;49.304;10.576;2023-06-14T01:25:24;12.40;99.90
11122;DHT22;5615;49.304;10.576;2023-06-14T01:27:53;12.30;99.90
11122;DHT22;5615;49.304;10.576;2023-06-14T01:30:23;12.40;99.90
11122;DHT22;5615;49.304;10.576;2023-06-14T01:32:51;12.30;99.90
11122;DHT22;5615;49.304;10.576;2023-06-14T01:35:19;12.50;99.90
11122;DHT22;5615;49.304;10.576;2023-06-14T01:37:47;12.50;99.90
11122;DHT22;5615;49.304;10.576;2023-06-14T01:40:16;12.60;99.90
11122;DHT22;5615;49.304;10.576;2023-06-14T01:42:44;12.50;99.90
11122;DHT22;5615;49.304;10.576;2023-06-14T01:45:12;12.60;99.90
11122;DHT22;5615;49.304;10.576;2023-06-14T01:47:40;12.60;99.90
11122;DHT22;5615;49.304;10.576;2023-06-14T01:50:07;12.50;99.90
11122;DHT22;5615;49.304;10.576;2023-06-14T01:52:34;12.30;99.90
11122;DHT22;5615;49.304;10.576;2023-06-14T01:55:01;12.20;99.90
11122;DHT22;5615;49.304;10.576;2023-06-14T01:57:29;12.20;99.90
11122;DHT22;5615;49.304;10.576;2023-06-14T01:59:56;12.10;99.90
11122;DHT22;5615;49.304;10.576;2023-06-14T02:02:23;12.00;99.90
11122;DHT22;5615;49.304;10.576;2023-06-14T02:04:49;11.90;99.90
11122;DHT22;5615;49.304;10.576;2023-06-14T02:07:16;12.00;99.90
11122;DHT22;5615;49.304;10.576;2023-06-14T02:09:42;11.90;99.90
11122;DHT22;5615;49.304;10.576;2023-06-14T02:12:09;11.80;99.90
11122;DHT22;5615;49.304;10.576;2023-06-14T02:14:38;11.70;99.90
11122;DHT22;5615;49.304;10.576;2023-06-14T02:17:05;11.80;99.90
11122;DHT22;5615;49.304;10.576;2023-06-14T02:19:32;11.80;99.90
11122;DHT22;5615;49.304;10.576;2023-06-14T02:21:58;11.70;99.90
11122;DHT22;5615;49.304;10.576;2023-06-14T02:24:25;11.70;99.90
11122;DHT22;5615;49.304;10.576;2023-06-14T02:26:52;11.70;99.90
11122;DHT22;5615;49.304;10.576;2023-06-14T02:29:18;11.70;99.90
11122;DHT22;5615;49.304;10.576;2023-06-14T02:31:46;11.80;99.90
11122;DHT22;5615;49.304;10.576;2023-06-14T02:34:14;11.80;99.90
11122;DHT22;5615;49.304;10.576;2023-06-14T02:36:42;11.80;99.90
11122;DHT22;5615;49.304;10.576;2023-06-14T02:39:09;11.80;99.90
11122;DHT22;5615;49.304;10.576;2023-06-14T02:41:36;11.90;99.90
11122;DHT22;5615;49.304;10.576;2023-06-14T02:44:02;12.10;99.90
11122;DHT22;5615;49.304;10.576;2023-06-14T02:46:29;12.10;99.90
11122;DHT22;5615;49.304;10.576;2023-06-14T02:48:57;12.10;99.90
11122;DHT22;5615;49.304;10.576;2023-06-14T02:51:24;11.90;99.90
11122;DHT22;5615;49.304;10.576;2023-06-14T02:53:51;11.80;99.90
11122;DHT22;5615;49.304;10.576;2023-06-14T02:56:17;11.70;99.90
11122;DHT22;5615;49.304;10.576;2023-06-14T02:58:44;11.70;99.90
11122;DHT22;5615;49.304;10.576;2023-06-14T03:01:11;11.80;99.90
11122;DHT22;5615;49.304;10.576;2023-06-14T03:03:39;11.90;99.90
11122;DHT22;5615;49.304;10.576;2023-06-14T03:06:07;11.90;99.90
11122;DHT22;5615;49.304;10.576;2023-06-14T03:08:34;12.10;99.90
11122;DHT22;5615;49.304;10.576;2023-06-14T03:11:04;12.10;99.90
11122;DHT22;5615;49.304;10.576;2023-06-14T03:13:31;11.80;99.90
11122;DHT22;5615;49.304;10.576;2023-06-14T03:15:58;11.40;99.90
11122;DHT22;5615;49.304;10.576;2023-06-14T03:18:28;11.20;99.90
11122;DHT22;5615;49.304;10.576;2023-06-14T03:20:55;11.30;99.90
11122;DHT22;5615;49.304;10.576;2023-06-14T03:23:24;11.40;99.90
11122;DHT22;5615;49.304;10.576;2023-06-14T03:25:51;11.40;99.90
11122;DHT22;5615;49.304;10.576;2023-06-14T03:28:18;11.50;99.90
11122;DHT22;5615;49.304;10.576;2023-06-14T03:30:45;11.30;99.90
11122;DHT22;5615;49.304;10.576;2023-06-14T03:33:11;11.20;99.90
11122;DHT22;5615;49.304;10.576;2023-06-14T03:35:39;11.30;99.90
11122;DHT22;5615;49.304;10.576;2023-06-14T03:38:05;11.20;99.90
11122;DHT22;5615;49.304;10.576;2023-06-14T03:40:33;11.20;99.90
11122;DHT22;5615;49.304;10.576;2023-06-14T03:43:00;11.50;99.90
11122;DHT22;5615;49.304;10.576;2023-06-14T03:45:26;11.40;99.90
11122;DHT22;5615;49.304;10.576;2023-06-14T03:47:53;11.30;99.90
11122;DHT22;5615;49.304;10.576;2023-06-14T03:50:20;11.50;99.90
11122;DHT22;5615;49.304;10.576;2023-06-14T03:52:48;11.50;99.90
11122;DHT22;5615;49.304;10.576;2023-06-14T03:55:15;11.40;99.90
11122;DHT22;5615;49.304;10.576;2023-06-14T03:57:43;11.40;99.90
11122;DHT22;5615;49.304;10.576;2023-06-14T04:00:11;11.50;99.90
11122;DHT22;5615;49.304;10.576;2023-06-14T04:02:38;11.50;99.90
11122;DHT22;5615;49.304;10.576;2023-06-14T04:05:05;11.60;99.90
11122;DHT22;5615;49.304;10.576;2023-06-14T04:07:34;11.80;99.90
11122;DHT22;5615;49.304;10.576;2023-06-14T04:10:06;12.00;99.90
11122;DHT22;5615;49.304;10.576;2023-06-14T04:12:32;12.20;99.90
11122;DHT22;5615;49.304;10.576;2023-06-14T04:15:00;12.30;99.90
11122;DHT22;5615;49.304;10.576;2023-06-14T04:17:28;12.50;99.90
11122;DHT22;5615;49.304;10.576;2023-06-14T04:19:55;12.60;99.90
11122;DHT22;5615;49.304;10.576;2023-06-14T04:22:24;12.70;99.90
11122;DHT22;5615;49.304;10.576;2023-06-14T04:24:54;12.80;99.90
11122;DHT22;5615;49.304;10.576;2023-06-14T04:27:21;13.00;99.90
11122;DHT22;5615;49.304;10.576;2023-06-14T04:29:51;13.00;99.90
11122;DHT22;5615;49.304;10.576;2023-06-14T04:32:23;13.10;99.90
11122;DHT22;5615;49.304;10.576;2023-06-14T04:34:50;13.20;99.90
11122;DHT22;5615;49.304;10.576;2023-06-14T04:37:19;13.30;99.90
11122;DHT22;5615;49.304;10.576;2023-06-14T04:39:46;13.40;99.90
11122;DHT22;5615;49.304;10.576;2023-06-14T04:42:13;13.50;99.90
11122;DHT22;5615;49.304;10.576;2023-06-14T04:44:41;13.50;99.90
11122;DHT22;5615;49.304;10.576;2023-06-14T04:47:08;13.60;99.90
11122;DHT22;5615;49.304;10.576;2023-06-14T04:49:38;13.70;99.90
11122;DHT22;5615;49.304;10.576;2023-06-14T04:52:05;13.80;99.90
11122;DHT22;5615;49.304;10.576;2023-06-14T04:54:32;13.90;99.90
11122;DHT22;5615;49.304;10.576;2023-06-14T04:57:02;14.00;99.90
11122;DHT22;5615;49.304;10.576;2023-06-14T04:59:29;14.10;99.90
11122;DHT22;5615;49.304;10.576;2023-06-14T05:01:58;14.10;99.90
11122;DHT22;5615;49.304;10.576;2023-06-14T05:04:25;14.10;99.90
11122;DHT22;5615;49.304;10.576;2023-06-14T05:06:54;14.30;99.90
11122;DHT22;5615;49.304;10.576;2023-06-14T05:09:20;14.20;99.90
11122;DHT22;5615;49.304;10.576;2023-06-14T05:11:47;14.30;99.90
11122;DHT22;5615;49.304;10.576;2023-06-14T05:14:14;14.30;99.90
11122;DHT22;5615;49.304;10.576;2023-06-14T05:16:40;14.50;99.90
11122;DHT22;5615;49.304;10.576;2023-06-14T05:19:08;14.50;99.90
11122;DHT22;5615;49.304;10.576;2023-06-14T05:21:36;14.70;99.90
11122;DHT22;5615;49.304;10.576;2023-06-14T05:24:04;14.70;99.90
11122;DHT22;5615;49.304;10.576;2023-06-14T05:26:31;14.70;99.90
11122;DHT22;5615;49.304;10.576;2023-06-14T05:28:59;14.70;99.90
11122;DHT22;5615;49.304;10.576;2023-06-14T05:31:27;14.80;99.90
11122;DHT22;5615;49.304;10.576;2023-06-14T05:33:54;14.90;99.90
11122;DHT22;5615;49.304;10.576;2023-06-14T05:36:21;14.90;99.90
11122;DHT22;5615;49.304;10.576;2023-06-14T05:38:47;15.00;99.90
11122;DHT22;5615;49.304;10.576;2023-06-14T05:41:15;14.90;99.90
11122;DHT22;5615;49.304;10.576;2023-06-14T05:43:42;15.00;99.90
11122;DHT22;5615;49.304;10.576;2023-06-14T05:46:09;15.00;99.90
11122;DHT22;5615;49.304;10.576;2023-06-14T05:48:35;15.10;99.90
11122;DHT22;5615;49.304;10.576;2023-06-14T05:51:02;15.00;99.90
11122;DHT22;5615;49.304;10.576;2023-06-14T05:53:29;15.10;99.90
11122;DHT22;5615;49.304;10.576;2023-06-14T05:55:56;15.20;99.90
11122;DHT22;5615;49.304;10.576;2023-06-14T05:58:23;15.30;99.90
11122;DHT22;5615;49.304;10.576;2023-06-14T06:00:50;15.20;99.90
11122;DHT22;5615;49.304;10.576;2023-06-14T06:03:18;15.30;99.90
11122;DHT22;5615;49.304;10.576;2023-06-14T06:05:46;15.50;99.90
11122;DHT22;5615;49.304;10.576;2023-06-14T06:08:13;15.50;99.90
11122;DHT22;5615;49.304;10.576;2023-06-14T06:10:40;15.70;99.90
11122;DHT22;5615;49.304;10.576;2023-06-14T06:13:06;15.90;99.90
11122;DHT22;5615;49.304;10.576;2023-06-14T06:15:35;15.80;99.90
11122;DHT22;5615;49.304;10.576;2023-06-14T06:18:02;15.80;99.90
11122;DHT22;5615;49.304;10.576;2023-06-14T06:20:29;15.80;99.90
11122;DHT22;5615;49.304;10.576;2023-06-14T06:22:57;15.90;99.90
11122;DHT22;5615;49.304;10.576;2023-06-14T06:25:24;16.00;99.90
11122;DHT22;5615;49.304;10.576;2023-06-14T06:27:51;16.10;99.90
11122;DHT22;5615;49.304;10.576;2023-06-14T06:30:18;16.20;99.90
11122;DHT22;5615;49.304;10.576;2023-06-14T06:32:46;16.20;99.90
11122;DHT22;5615;49.304;10.576;2023-06-14T06:35:12;16.30;99.90
11122;DHT22;5615;49.304;10.576;2023-06-14T06:37:39;16.30;99.90
11122;DHT22;5615;49.304;10.576;2023-06-14T06:40:07;16.40;99.90
11122;DHT22;5615;49.304;10.576;2023-06-14T06:42:35;16.40;99.90
11122;DHT22;5615;49.304;10.576;2023-06-14T06:45:02;16.60;99.90
11122;DHT22;5615;49.304;10.576;2023-06-14T06:47:28;16.60;99.50
11122;DHT22;5615;49.304;10.576;2023-06-14T06:49:56;16.70;99.90
11122;DHT22;5615;49.304;10.576;2023-06-14T06:52:23;16.90;99.90
11122;DHT22;5615;49.304;10.576;2023-06-14T06:54:50;16.80;99.90
11122;DHT22;5615;49.304;10.576;2023-06-14T06:57:20;16.80;99.90
11122;DHT22;5615;49.304;10.576;2023-06-14T06:59:48;16.90;99.90
11122;DHT22;5615;49.304;10.576;2023-06-14T07:02:14;16.90;99.60
11122;DHT22;5615;49.304;10.576;2023-06-14T07:04:41;17.00;99.40
11122;DHT22;5615;49.304;10.576;2023-06-14T07:07:09;17.00;99.30
11122;DHT22;5615;49.304;10.576;2023-06-14T07:09:36;17.10;99.50
11122;DHT22;5615;49.304;10.576;2023-06-14T07:12:03;17.30;99.20
11122;DHT22;5615;49.304;10.576;2023-06-14T07:14:30;17.30;98.90
11122;DHT22;5615;49.304;10.576;2023-06-14T07:16:56;17.40;98.50
11122;DHT22;5615;49.304;10.576;2023-06-14T07:19:23;17.50;98.20
11122;DHT22;5615;49.304;10.576;2023-06-14T07:21:50;17.60;97.80
11122;DHT22;5615;49.304;10.576;2023-06-14T07:24:18;17.70;97.30
11122;DHT22;5615;49.304;10.576;2023-06-14T07:26:46;17.60;97.90
11122;DHT22;5615;49.304;10.576;2023-06-14T07:29:14;17.60;96.90
11122;DHT22;5615;49.304;10.576;2023-06-14T07:31:41;17.70;97.00
11122;DHT22;5615;49.304;10.576;2023-06-14T07:34:08;17.70;97.00
11122;DHT22;5615;49.304;10.576;2023-06-14T07:36:35;17.80;96.00
11122;DHT22;5615;49.304;10.576;2023-06-14T07:39:02;17.90;96.00
11122;DHT22;5615;49.304;10.576;2023-06-14T07:41:31;18.00;96.40
11122;DHT22;5615;49.304;10.576;2023-06-14T07:43:57;18.30;96.60
11122;DHT22;5615;49.304;10.576;2023-06-14T07:46:24;18.30;95.30
11122;DHT22;5615;49.304;10.576;2023-06-14T07:48:51;18.50;93.90
11122;DHT22;5615;49.304;10.576;2023-06-14T07:51:17;18.60;92.60
11122;DHT22;5615;49.304;10.576;2023-06-14T07:53:44;18.70;92.90
11122;DHT22;5615;49.304;10.576;2023-06-14T07:56:11;18.90;92.40
11122;DHT22;5615;49.304;10.576;2023-06-14T07:58:39;19.20;91.60
11122;DHT22;5615;49.304;10.576;2023-06-14T08:01:06;19.30;91.00
11122;DHT22;5615;49.304;10.576;2023-06-14T08:03:33;19.50;90.70
11122;DHT22;5615;49.304;10.576;2023-06-14T08:06:02;19.70;89.10
11122;DHT22;5615;49.304;10.576;2023-06-14T08:08:29;19.90;88.50
11122;DHT22;5615;49.304;10.576;2023-06-14T08:10:56;19.90;84.80
11122;DHT22;5615;49.304;10.576;2023-06-14T08:13:22;20.10;85.00
11122;DHT22;5615;49.304;10.576;2023-06-14T08:15:50;20.30;83.60
11122;DHT22;5615;49.304;10.576;2023-06-14T08:18:17;20.30;81.90
11122;DHT22;5615;49.304;10.576;2023-06-14T08:20:44;20.60;80.70
11122;DHT22;5615;49.304;10.576;2023-06-14T08:23:11;20.90;77.80
11122;DHT22;5615;49.304;10.576;2023-06-14T08:25:37;21.00;77.50
11122;DHT22;5615;49.304;10.576;2023-06-14T08:28:04;21.00;78.60
11122;DHT22;5615;49.304;10.576;2023-06-14T08:30:31;20.90;76.20
11122;DHT22;5615;49.304;10.576;2023-06-14T08:32:59;21.00;75.50
11122;DHT22;5615;49.304;10.576;2023-06-14T08:35:26;21.20;73.20
11122;DHT22;5615;49.304;10.576;2023-06-14T08:37:53;21.30;71.00
11122;DHT22;5615;49.304;10.576;2023-06-14T08:40:21;21.30;70.10
11122;DHT22;5615;49.304;10.576;2023-06-14T08:42:51;21.30;68.50
11122;DHT22;5615;49.304;10.576;2023-06-14T08:45:18;21.30;67.50
11122;DHT22;5615;49.304;10.576;2023-06-14T08:47:45;21.50;67.80
11122;DHT22;5615;49.304;10.576;2023-06-14T08:50:20;22.20;64.20
11122;DHT22;5615;49.304;10.576;2023-06-14T08:52:48;22.30;59.70
11122;DHT22;5615;49.304;10.576;2023-06-14T08:55:18;22.30;59.60
11122;DHT22;5615;49.304;10.576;2023-06-14T08:57:46;22.50;59.80
11122;DHT22;5615;49.304;10.576;2023-06-14T09:00:15;22.90;59.50
11122;DHT22;5615;49.304;10.576;2023-06-14T09:02:42;22.90;55.00
11122;DHT22;5615;49.304;10.576;2023-06-14T09:05:09;23.30;54.00
11122;DHT22;5615;49.304;10.576;2023-06-14T09:07:40;23.60;53.80
11122;DHT22;5615;49.304;10.576;2023-06-14T09:10:08;23.30;52.60
11122;DHT22;5615;49.304;10.576;2023-06-14T09:12:35;23.60;52.70
11122;DHT22;5615;49.304;10.576;2023-06-14T09:15:03;23.80;52.80
11122;DHT22;5615;49.304;10.576;2023-06-14T09:17:32;24.20;52.10
11122;DHT22;5615;49.304;10.576;2023-06-14T09:20:00;23.90;51.30
11122;DHT22;5615;49.304;10.576;2023-06-14T09:22:29;24.00;50.70
11122;DHT22;5615;49.304;10.576;2023-06-14T09:24:57;24.30;50.70
11122;DHT22;5615;49.304;10.576;2023-06-14T09:27:25;24.60;49.20
11122;DHT22;5615;49.304;10.576;2023-06-14T09:29:52;24.70;49.10
11122;DHT22;5615;49.304;10.576;2023-06-14T09:32:18;24.90;48.30
11122;DHT22;5615;49.304;10.576;2023-06-14T09:34:45;24.90;47.70
11122;DHT22;5615;49.304;10.576;2023-06-14T09:37:12;25.10;44.80
11122;DHT22;5615;49.304;10.576;2023-06-14T09:39:49;25.30;43.50
11122;DHT22;5615;49.304;10.576;2023-06-14T09:42:18;25.60;43.10
11122;DHT22;5615;49.304;10.576;2023-06-14T09:44:48;25.80;41.50
11122;DHT22;5615;49.304;10.576;2023-06-14T09:47:15;25.50;40.60
11122;DHT22;5615;49.304;10.576;2023-06-14T09:49:42;25.90;41.00
11122;DHT22;5615;49.304;10.576;2023-06-14T09:52:10;26.20;40.10
11122;DHT22;5615;49.304;10.576;2023-06-14T09:54:41;26.10;41.00
11122;DHT22;5615;49.304;10.576;2023-06-14T09:57:10;26.40;39.40
11122;DHT22;5615;49.304;10.576;2023-06-14T09:59:40;26.20;38.90
11122;DHT22;5615;49.304;10.576;2023-06-14T10:02:11;25.90;38.80
11122;DHT22;5615;49.304;10.576;2023-06-14T10:04:42;26.60;39.40
11122;DHT22;5615;49.304;10.576;2023-06-14T10:07:13;26.90;35.90
11122;DHT22;5615;49.304;10.576;2023-06-14T10:09:43;27.50;36.30
11122;DHT22;5615;49.304;10.576;2023-06-14T10:12:16;26.80;35.80
11122;DHT22;5615;49.304;10.576;2023-06-14T10:14:48;27.30;34.80
11122;DHT22;5615;49.304;10.576;2023-06-14T10:17:22;28.10;33.10
11122;DHT22;5615;49.304;10.576;2023-06-14T10:19:55;28.50;31.20
11122;DHT22;5615;49.304;10.576;2023-06-14T10:22:30;28.00;29.90
11122;DHT22;5615;49.304;10.576;2023-06-14T10:24:59;27.50;31.50
11122;DHT22;5615;49.304;10.576;2023-06-14T10:27:26;27.50;31.30
11122;DHT22;5615;49.304;10.576;2023-06-14T10:30:06;27.20;32.00
11122;DHT22;5615;49.304;10.576;2023-06-14T10:32:33;27.10;32.30
11122;DHT22;5615;49.304;10.576;2023-06-14T10:35:01;26.50;31.90
11122;DHT22;5615;49.304;10.576;2023-06-14T10:37:30;27.60;32.70
11122;DHT22;5615;49.304;10.576;2023-06-14T10:39:57;28.10;31.60
11122;DHT22;5615;49.304;10.576;2023-06-14T10:42:28;27.60;31.80
11122;DHT22;5615;49.304;10.576;2023-06-14T10:44:55;27.50;33.00
11122;DHT22;5615;49.304;10.576;2023-06-14T10:47:28;27.40;32.60
11122;DHT22;5615;49.304;10.576;2023-06-14T10:49:56;27.40;32.70
11122;DHT22;5615;49.304;10.576;2023-06-14T10:52:26;27.70;32.40
11122;DHT22;5615;49.304;10.576;2023-06-14T10:55:07;27.20;32.10
11122;DHT22;5615;49.304;10.576;2023-06-14T10:57:39;27.00;32.50
11122;DHT22;5615;49.304;10.576;2023-06-14T11:00:06;26.80;32.30
11122;DHT22;5615;49.304;10.576;2023-06-14T11:05:48;27.30;31.80
11122;DHT22;5615;49.304;10.576;2023-06-14T11:08:31;28.90;31.80
11122;DHT22;5615;49.304;10.576;2023-06-14T11:11:06;29.00;29.70
11122;DHT22;5615;49.304;10.576;2023-06-14T11:13:33;28.20;30.00
11122;DHT22;5615;49.304;10.576;2023-06-14T11:16:00;27.90;30.50
11122;DHT22;5615;49.304;10.576;2023-06-14T11:18:28;27.10;30.40
11122;DHT22;5615;49.304;10.576;2023-06-14T11:20:55;27.30;31.30
11122;DHT22;5615;49.304;10.576;2023-06-14T11:23:21;28.30;29.80
11122;DHT22;5615;49.304;10.576;2023-06-14T11:25:50;29.30;29.80
11122;DHT22;5615;49.304;10.576;2023-06-14T11:28:17;31.10;28.50
11122;DHT22;5615;49.304;10.576;2023-06-14T11:30:45;32.70;26.90
11122;DHT22;5615;49.304;10.576;2023-06-14T11:33:14;33.90;24.80
11122;DHT22;5615;49.304;10.576;2023-06-14T11:35:44;33.80;23.60
11122;DHT22;5615;49.304;10.576;2023-06-14T11:38:11;32.70;23.70
11122;DHT22;5615;49.304;10.576;2023-06-14T11:40:38;32.10;23.30
11122;DHT22;5615;49.304;10.576;2023-06-14T11:43:05;31.30;23.90
11122;DHT22;5615;49.304;10.576;2023-06-14T11:45:32;31.60;24.00
11122;DHT22;5615;49.304;10.576;2023-06-14T11:47:59;31.00;24.10
11122;DHT22;5615;49.304;10.576;2023-06-14T11:50:26;29.90;24.60
11122;DHT22;5615;49.304;10.576;2023-06-14T11:52:55;29.20;25.00
11122;DHT22;5615;49.304;10.576;2023-06-14T11:55:22;28.80;25.20
11122;DHT22;5615;49.304;10.576;2023-06-14T11:57:49;28.60;25.70
11122;DHT22;5615;49.304;10.576;2023-06-14T12:00:17;28.80;25.40
11122;DHT22;5615;49.304;10.576;2023-06-14T12:02:52;29.10;24.90
11122;DHT22;5615;49.304;10.576;2023-06-14T12:05:21;30.00;24.20
11122;DHT22;5615;49.304;10.576;2023-06-14T12:07:47;30.30;24.00
11122;DHT22;5615;49.304;10.576;2023-06-14T12:10:17;31.30;23.30
11122;DHT22;5615;49.304;10.576;2023-06-14T12:12:43;31.10;23.20
11122;DHT22;5615;49.304;10.576;2023-06-14T12:15:10;31.60;22.40
11122;DHT22;5615;49.304;10.576;2023-06-14T12:17:38;31.50;22.60
11122;DHT22;5615;49.304;10.576;2023-06-14T12:20:08;33.30;21.00
11122;DHT22;5615;49.304;10.576;2023-06-14T12:22:39;34.00;20.10
11122;DHT22;5615;49.304;10.576;2023-06-14T12:25:06;33.30;19.90
11122;DHT22;5615;49.304;10.576;2023-06-14T12:27:39;32.50;20.50
11122;DHT22;5615;49.304;10.576;2023-06-14T12:30:07;32.00;20.90
11122;DHT22;5615;49.304;10.576;2023-06-14T12:32:34;31.50;20.80
11122;DHT22;5615;49.304;10.576;2023-06-14T12:35:01;31.00;21.10
11122;DHT22;5615;49.304;10.576;2023-06-14T12:37:28;30.20;21.60
11122;DHT22;5615;49.304;10.576;2023-06-14T12:39:55;29.50;21.80
11122;DHT22;5615;49.304;10.576;2023-06-14T12:42:21;29.30;22.20
11122;DHT22;5615;49.304;10.576;2023-06-14T12:44:49;29.20;22.20
11122;DHT22;5615;49.304;10.576;2023-06-14T12:47:16;29.00;22.60
11122;DHT22;5615;49.304;10.576;2023-06-14T12:49:43;28.80;23.20
11122;DHT22;5615;49.304;10.576;2023-06-14T12:52:09;28.30;24.20
11122;DHT22;5615;49.304;10.576;2023-06-14T12:54:36;28.20;23.90
11122;DHT22;5615;49.304;10.576;2023-06-14T12:57:05;27.80;23.70
11122;DHT22;5615;49.304;10.576;2023-06-14T12:59:31;26.20;25.00
11122;DHT22;5615;49.304;10.576;2023-06-14T13:02:10;25.60;26.30
11122;DHT22;5615;49.304;10.576;2023-06-14T13:04:37;26.70;26.10
11122;DHT22;5615;49.304;10.576;2023-06-14T13:07:04;29.60;24.20
11122;DHT22;5615;49.304;10.576;2023-06-14T13:09:31;32.10;22.00
11122;DHT22;5615;49.304;10.576;2023-06-14T13:11:58;32.20;21.00
11122;DHT22;5615;49.304;10.576;2023-06-14T13:14:24;31.50;20.90
11122;DHT22;5615;49.304;10.576;2023-06-14T13:16:51;30.90;21.30
11122;DHT22;5615;49.304;10.576;2023-06-14T13:19:19;30.50;21.80
11122;DHT22;5615;49.304;10.576;2023-06-14T13:21:46;32.20;20.90
11122;DHT22;5615;49.304;10.576;2023-06-14T13:24:12;32.90;20.00
11122;DHT22;5615;49.304;10.576;2023-06-14T13:26:39;33.00;19.20
11122;DHT22;5615;49.304;10.576;2023-06-14T13:29:05;32.00;19.60
11122;DHT22;5615;49.304;10.576;2023-06-14T13:31:32;31.10;20.70
11122;DHT22;5615;49.304;10.576;2023-06-14T13:33:59;29.70;21.50
11122;DHT22;5615;49.304;10.576;2023-06-14T13:36:27;28.80;22.70
11122;DHT22;5615;49.304;10.576;2023-06-14T13:38:53;28.60;23.40
11122;DHT22;5615;49.304;10.576;2023-06-14T13:41:20;30.50;23.20
11122;DHT22;5615;49.304;10.576;2023-06-14T13:43:47;33.20;20.60
11122;DHT22;5615;49.304;10.576;2023-06-14T13:46:13;35.00;18.70
11122;DHT22;5615;49.304;10.576;2023-06-14T13:48:40;36.30;17.10
11122;DHT22;5615;49.304;10.576;2023-06-14T13:51:07;37.30;15.80
11122;DHT22;5615;49.304;10.576;2023-06-14T13:53:35;36.10;15.50
11122;DHT22;5615;49.304;10.576;2023-06-14T13:56:02;36.00;15.30
11122;DHT22;5615;49.304;10.576;2023-06-14T13:58:29;35.00;16.10
11122;DHT22;5615;49.304;10.576;2023-06-14T14:00:55;34.10;16.80
11122;DHT22;5615;49.304;10.576;2023-06-14T14:03:22;33.60;18.10
11122;DHT22;5615;49.304;10.576;2023-06-14T14:05:49;35.40;17.50
11122;DHT22;5615;49.304;10.576;2023-06-14T14:08:16;35.10;16.70
11122;DHT22;5615;49.304;10.576;2023-06-14T14:10:44;35.70;16.40
11122;DHT22;5615;49.304;10.576;2023-06-14T14:13:11;37.00;16.10
11122;DHT22;5615;49.304;10.576;2023-06-14T14:15:38;37.80;15.10
11122;DHT22;5615;49.304;10.576;2023-06-14T14:18:04;37.90;14.30
11122;DHT22;5615;49.304;10.576;2023-06-14T14:20:31;38.50;13.90
11122;DHT22;5615;49.304;10.576;2023-06-14T14:22:58;38.60;13.80
11122;DHT22;5615;49.304;10.576;2023-06-14T14:25:25;39.10;13.40
11122;DHT22;5615;49.304;10.576;2023-06-14T14:27:52;39.10;13.00
11122;DHT22;5615;49.304;10.576;2023-06-14T14:30:19;37.80;12.80
11122;DHT22;5615;49.304;10.576;2023-06-14T14:32:49;38.60;13.10
11122;DHT22;5615;49.304;10.576;2023-06-14T14:35:16;40.10;12.50
11122;DHT22;5615;49.304;10.576;2023-06-14T14:37:43;40.10;11.90
11122;DHT22;5615;49.304;10.576;2023-06-14T14:40:10;39.90;11.80
11122;DHT22;5615;49.304;10.576;2023-06-14T14:42:37;40.40;11.40
11122;DHT22;5615;49.304;10.576;2023-06-14T14:45:07;38.40;10.90
11122;DHT22;5615;49.304;10.576;2023-06-14T14:47:33;36.50;12.90
11122;DHT22;5615;49.304;10.576;2023-06-14T14:50:00;37.60;12.70
11122;DHT22;5615;49.304;10.576;2023-06-14T14:52:26;38.30;12.10
11122;DHT22;5615;49.304;10.576;2023-06-14T14:54:53;38.50;11.80
11122;DHT22;5615;49.304;10.576;2023-06-14T14:57:21;37.60;12.00
11122;DHT22;5615;49.304;10.576;2023-06-14T14:59:47;35.80;12.50
11122;DHT22;5615;49.304;10.576;2023-06-14T15:02:15;34.20;13.50
11122;DHT22;5615;49.304;10.576;2023-06-14T15:04:42;33.10;14.40
11122;DHT22;5615;49.304;10.576;2023-06-14T15:07:09;32.00;15.30
11122;DHT22;5615;49.304;10.576;2023-06-14T15:09:35;31.10;16.10
11122;DHT22;5615;49.304;10.576;2023-06-14T15:12:02;30.70;16.40
11122;DHT22;5615;49.304;10.576;2023-06-14T15:14:29;30.10;16.90
11122;DHT22;5615;49.304;10.576;2023-06-14T15:16:56;29.50;17.70
11122;DHT22;5615;49.304;10.576;2023-06-14T15:19:25;29.20;17.90
11122;DHT22;5615;49.304;10.576;2023-06-14T15:21:51;28.90;17.80
11122;DHT22;5615;49.304;10.576;2023-06-14T15:24:18;28.90;17.90
11122;DHT22;5615;49.304;10.576;2023-06-14T15:26:45;28.50;18.20
11122;DHT22;5615;49.304;10.576;2023-06-14T15:29:12;28.60;18.40
11122;DHT22;5615;49.304;10.576;2023-06-14T15:31:38;28.50;18.30
11122;DHT22;5615;49.304;10.576;2023-06-14T15:34:05;28.10;18.40
11122;DHT22;5615;49.304;10.576;2023-06-14T15:36:33;28.10;18.70